Detall de PIREP

Printer-friendly versionPDF version

[2013/06/24 09:20:00]
Flight IATA:CT1004
Pilot Number:044
Company ICAO:CAT
Aircraft Type:AT72/F
PAX:40
Departing Airport: LFMP
Destination Airport: LEBL
Alternate Airport:LEGE
Online: VATSIM
Route:BGR
Flight Level:F130
No Slew and time accel
No pause
Crash detect
Detect pilot in Cockpit between each 30 and 45 minutes
09:20 Zero fuel Weight: 39664 Lbs, Fuel Weight: 2749 Lbs
09:20 VATSIM:LFMP 240900Z 33024G37KT 290V020 9999 FEW030 18/05 Q1023 NOSIG
09:20 VATSIM:LEBL 240900Z 32007KT 260V360 9999 FEW025 BKN030 21/10 Q1023 NOSIG
09:21 VOICE CATALONIAN / FLAMA DEL CANIGO
09:21 Parking Brakes off
09:29 Take-off
09:29 Take off Weight: 42357 Lbs
09:29 Wind: 331º @ 024 Knots Heading: 306º
09:29 POS N42º 44´ 17´´ E002º 52´ 03´´
09:29 Flaps:1 at 137 Knots
09:29 Flaps:0 at 105 Knots
09:36 Gear Up: 151 Knots
09:38 TOC
09:38 Fuel Weight: 2328 Lb
09:44 Wind:325º@021 Knots Heading: 205º Ground Speed: 289 Knots Altitude 13290 ft
09:48 TOD
09:48 Fuel Weight: 2035 Lb
09:59 Wind:279º@011 Knots Heading: 223º Ground Speed: 212 Knots Altitude 5144 ft
10:02 Flaps:1 at 165 Knots
10:02 Gear Down: 156 Knots
10:03 Flaps:2 at 132 Knots
10:05 TOC
10:05 Fuel Weight: 1872 Lb
10:05 TouchDown:Rate -102 ft/min Speed: 98 Knots
10:06 VATSIM:LEBL 241000Z 21009KT 170V250 9999 FEW025 22/13 Q1023 NOSIG
10:06 Land
10:06 Wind:216º@009 Knots
10:06 Heading: 248º
10:06 Flight Duration: 00:37
10:06 Landing Weight: 41527 Lbs
10:06 POS N41º 17´ 57´´ E002º 05´ 05´´
10:09 Parking brakes on
10:09 Block to Block Duration: 00:48
10:09 Final Fuel: 1840 Lbls
10:09 Spent Fuel: 908 Lbls
10:09 Flight Length: 131 NM
10:09 TOD Land Length: 55 NM

Exportar CSV

Powered by Drupal - Modified by Danger4k